Latest Weather Observations for Forbes

IDN60801

Issued at 9:13 am EST Wednesday 22 September 2021 (issued every 10 minutes, with the page automatically refreshed every 10 minutes)

About weather observations | Map of weather stations | Latest weather observations for NSW | Other Formats
Station Details ID: 065103 Name: FORBES AIRPORT AWS Lat: -33.36 Lon: 147.92 Height: 230.4 m
Data from the previous 72 hours. | See also: Recent months at Forbes
Date/Time
EST
Temp
°C
App
Temp
°C
Dew
Point
°C
Rel
Hum
%
Delta-T
°C
Wind Press
QNH
hPa
Press
MSL
hPa
Rain since
9am
mm
Dir  Spd
km/h
Gust
km/h
Spd
kts
Gust
kts
22/09:00am 8.7 6.1 4.1 73 2.0 SSE 7 15 4 8 1027.1 1027.0 0.0
22/08:30am 7.7 4.6 3.6 75 1.8 S 9 15 5 8 1027.0 1026.9 0.0
22/08:00am 6.9 3.8 3.5 79 1.4 SSE 9 17 5 9 1026.6 1026.6 0.0
22/07:30am 5.8 3.5 2.8 81 1.3 SSE 4 7 2 4 1026.2 1026.2 0.0
22/07:00am 4.5 3.1 3.8 95 0.3 CALM 0 0 0 0 1025.9 1025.9 0.0
22/06:30am 1.5 -0.4 0.8 95 0.3 CALM 0 2 0 1 1025.5 1025.5 0.0
22/06:00am 1.8 0.0 1.2 96 0.2 CALM 0 0 0 0 1025.3 1025.3 0.0
22/05:30am 1.6 -0.3 0.7 94 0.3 CALM 0 0 0 0 1024.8 1024.8 0.0
22/05:00am 2.7 1.0 1.7 93 0.4 CALM 0 0 0 0 1024.5 1024.5 0.0
22/04:30am 2.3 0.4 0.8 90 0.6 CALM 0 0 0 0 1024.4 1024.4 0.0
22/04:00am 3.5 0.7 1.9 89 0.6 SSW 6 9 3 5 1024.1 1024.1 0.0
22/03:30am 3.8 0.5 2.2 89 0.6 SSW 9 13 5 7 1024.3 1024.3 0.0
22/03:00am 4.2 1.2 2.2 87 0.8 SSW 7 11 4 6 1024.5 1024.5 0.0
22/02:30am 4.6 1.3 2.6 87 0.8 SW 9 13 5 7 1024.7 1024.7 0.0
22/02:00am 4.4 1.4 2.3 86 0.8 SW 7 9 4 5 1025.0 1025.0 0.0
22/01:30am 5.8 2.2 2.8 81 1.3 SSW 11 15 6 8 1025.2 1025.2 0.0
22/01:00am 6.1 2.5 3.1 81 1.3 SW 11 17 6 9 1025.6 1025.6 0.0
22/12:30am 6.1 2.1 2.9 80 1.3 SW 13 17 7 9 1025.7 1025.7 0.0
22/12:00am 5.6 2.3 2.6 81 1.2 SW 9 13 5 7 1026.2 1026.2 0.0
 
Date/Time
EST
Temp
°C
App
Temp
°C
Dew
Point
°C
Rel
Hum
%
Delta-T
°C
Wind Press
QNH
hPa
Press
MSL
hPa
Rain since
9am
mm
Dir  Spd
km/h
Gust
km/h
Spd
kts
Gust
kts
21/11:30pm 5.5 2.6 2.5 81 1.2 SW 7 11 4 6 1026.3 1026.3 0.0
21/11:00pm 5.5 2.2 2.5 81 1.2 SSW 9 13 5 7 1026.5 1026.5 0.0
21/10:30pm 6.2 3.3 2.8 79 1.4 SW 7 9 4 5 1026.6 1026.6 0.0
21/10:00pm 6.4 3.2 3.0 79 1.4 WSW 9 13 5 7 1026.6 1026.6 0.0
21/09:30pm 7.3 4.5 3.4 76 1.7 SW 7 13 4 7 1026.4 1026.4 0.0
21/09:00pm 7.0 4.2 2.9 75 1.7 SW 7 11 4 6 1025.9 1025.9 0.0
21/08:30pm 7.6 4.1 3.3 74 1.8 SW 11 17 6 9 1025.7 1025.7 0.0
21/08:00pm 7.8 5.0 3.1 72 2.0 SW 7 11 4 6 1025.5 1025.5 0.0
21/07:30pm 8.6 5.0 3.0 68 2.4 SW 11 15 6 8 1025.0 1025.0 0.0
21/07:00pm 9.5 5.5 2.8 63 2.9 SSW 13 20 7 11 1024.7 1024.7 0.0
21/06:30pm 10.3 5.6 3.1 61 3.2 SSW 17 24 9 13 1024.3 1024.3 0.0
21/06:00pm 10.3 6.7 3.1 61 3.1 SSW 11 15 6 8 1023.9 1023.9 0.0
21/05:30pm 12.2 7.5 2.9 53 4.1 SSW 17 24 9 13 1023.5 1023.5 0.0
21/05:00pm 12.9 7.8 3.3 52 4.3 SW 19 28 10 15 1023.2 1023.1 0.0
21/04:30pm 13.5 8.3 3.8 52 4.4 SSW 20 35 11 19 1023.1 1023.0 0.0
21/04:00pm 13.4 7.7 2.6 48 4.8 SSW 22 39 12 21 1023.0 1022.9 0.0
21/03:30pm 14.0 8.9 4.0 51 4.6 SSW 20 32 11 17 1022.7 1022.6 0.0
21/03:00pm 13.6 7.1 2.8 48 4.8 SSW 26 37 14 20 1022.5 1022.4 0.0
21/02:30pm 13.0 6.9 2.8 50 4.6 S 24 35 13 19 1022.5 1022.4 0.0
21/02:00pm 13.8 7.9 3.9 51 4.5 SSW 24 35 13 19 1022.7 1022.6 0.0
21/01:30pm 12.3 7.2 4.3 58 3.7 SSW 20 32 11 17 1022.8 1022.7 0.0
21/01:00pm 11.9 6.6 3.2 55 3.9 SSW 20 32 11 17 1023.0 1022.9 0.0
21/12:30pm 10.7 5.5 3.7 62 3.1 SW 20 33 11 18 1022.9 1022.8 0.0
21/12:00pm 10.0 4.5 4.0 66 2.7 SW 22 32 12 17 1023.0 1022.9 0.0
21/11:30am 9.2 3.5 2.8 64 2.8 SSW 22 30 12 16 1023.0 1022.9 0.0
21/11:00am 8.2 2.9 2.9 69 2.3 SSW 20 30 11 16 1022.9 1022.8 0.0
21/10:30am 6.5 1.2 2.8 77 1.6 SW 20 28 11 15 1023.3 1023.2 0.0
21/10:00am 6.0 0.2 2.5 78 1.4 SSW 22 30 12 16 1023.1 1023.0 0.0
21/09:30am 5.5 -0.3 2.3 80 1.3 SSW 22 32 12 17 1022.9 1022.8 0.0
21/09:00am 5.5 -0.3 2.3 80 1.3 SSW 22 33 12 18 1022.3 1022.3 0.2
21/08:30am 5.2 -0.2 2.6 83 1.1 SSW 20 30 11 16 1022.1 1022.1 0.2
21/08:00am 4.8 -1.0 2.2 83 1.1 SW 22 32 12 17 1021.4 1021.4 0.0
21/07:30am 4.5 -1.4 2.0 84 1.0 SW 22 35 12 19 1021.0 1021.0 0.0
21/07:00am 4.4 -1.1 2.1 85 0.9 SW 20 30 11 16 1020.4 1020.4 0.0
21/06:30am 4.5 -1.4 2.0 84 1.0 SW 22 33 12 18 1019.9 1019.9 0.0
21/06:00am 4.5 -0.7 2.2 85 0.9 SW 19 35 10 19 1019.3 1019.2 0.0
21/05:30am 4.3 -0.6 1.8 84 1.0 SW 17 24 9 13 1018.7 1018.6 0.0
21/05:00am 4.6 -0.9 2.0 83 1.0 SW 20 30 11 16 1018.5 1018.4 0.0
21/04:30am 4.8 -0.5 2.0 82 1.1 SW 19 32 10 17 1018.3 1018.2 0.0
21/04:00am 4.5 -0.1 1.7 82 1.1 SW 15 20 8 11 1018.1 1018.0 0.0
21/03:30am 5.1 0.6 2.1 81 1.2 WSW 15 26 8 14 1017.9 1017.8 0.0
21/03:00am 5.4 1.3 2.4 81 1.2 SW 13 20 7 11 1017.6 1017.6 0.0
21/02:30am 6.0 1.2 2.8 80 1.3 SW 17 24 9 13 1017.4 1017.4 0.0
21/02:00am 6.5 1.9 3.5 81 1.3 SW 17 28 9 15 1017.3 1017.3 0.0
21/01:30am 7.4 2.5 4.0 79 1.5 SW 19 32 10 17 1017.4 1017.4 0.0
21/01:00am 8.1 3.2 4.1 76 1.8 SW 19 33 10 18 1017.4 1017.4 0.0
21/12:30am 8.2 3.3 5.0 80 1.4 SW 20 26 11 14 1017.4 1017.4 0.0
21/12:00am 8.4 3.1 5.0 79 1.5 SW 22 33 12 18 1017.4 1017.4 0.0
 
Date/Time
EST
Temp
°C
App
Temp
°C
Dew
Point
°C
Rel
Hum
%
Delta-T
°C
Wind Press
QNH
hPa
Press
MSL
hPa
Rain since
9am
mm
Dir  Spd
km/h
Gust
km/h
Spd
kts
Gust
kts
20/11:30pm 8.6 4.2 5.0 78 1.6 SW 17 28 9 15 1017.2 1017.2 0.0
20/11:00pm 8.4 5.7 5.5 82 1.3 SW 9 13 5 7 1017.2 1017.2 0.0
20/10:30pm 9.0 6.0 6.1 82 1.3 SW 11 19 6 10 1017.3 1017.3 0.0
20/10:00pm 9.1 6.0 7.1 87 0.9 WSW 13 20 7 11 1017.5 1017.5 0.0
20/09:30pm 8.4 6.3 8.1 98 0.1 SW 9 17 5 9 1017.3 1017.3 0.0
20/09:00pm 6.1 4.3 5.2 94 0.4 ENE 4 6 2 3 1016.8 1016.8 0.0
20/08:30pm 7.3 5.2 5.9 91 0.6 NW 6 7 3 4 1016.5 1016.5 0.0
20/08:00pm 7.7 6.1 6.3 91 0.6 NW 4 6 2 3 1016.6 1016.6 0.0
20/07:30pm 8.3 7.4 6.1 86 1.0 CALM 0 0 0 0 1016.5 1016.5 0.0
20/07:00pm 9.7 8.2 7.0 83 1.3 W 4 6 2 3 1016.3 1016.3 0.0
20/06:30pm 10.2 7.7 6.7 79 1.7 WSW 9 13 5 7 1016.0 1015.9 0.0
20/06:00pm 10.4 8.6 7.3 81 1.5 WSW 6 13 3 7 1015.6 1015.5 0.0
20/05:30pm 10.0 8.1 7.6 85 1.2 WSW 7 13 4 7 1015.5 1015.4 0.0
20/05:00pm 10.4 5.5 6.9 79 1.7 SW 22 35 12 19 1015.4 1015.3 0.0
20/04:30pm 11.6 4.7 6.5 71 2.4 SSW 32 44 17 24 1015.2 1015.1 0.0
20/04:14pm 12.8 6.1 7.5 70 2.6 SSW 32 54 17 29 1015.0 1014.9 0.0
20/04:00pm 13.8 8.0 8.0 68 2.9 SW 28 39 15 21 1014.5 1014.4 0.0
20/03:30pm 15.5 11.0 8.7 64 3.5 SW 22 37 12 20 1014.0 1013.9 0.0
20/03:00pm 16.7 11.0 8.4 58 4.3 SW 28 43 15 23 1013.5 1013.4 0.0
20/02:30pm 18.8 12.3 6.3 44 6.3 WSW 30 43 16 23 1012.9 1012.9 0.0
20/02:00pm 20.2 13.5 3.4 33 8.0 W 28 43 15 23 1012.7 1012.7 0.0
20/01:30pm 22.5 16.8 5.0 32 8.8 W 24 39 13 21 1012.9 1012.9 0.0
20/01:00pm 22.5 16.3 4.5 31 9.0 W 26 35 14 19 1013.1 1013.1 0.0
20/12:30pm 21.9 14.3 2.6 28 9.2 WNW 32 43 17 23 1013.8 1013.7 0.0
20/12:00pm 22.3 16.6 4.8 32 8.7 WNW 24 33 13 18 1014.4 1014.3 0.0
20/11:30am 21.5 14.2 2.7 29 9.0 WNW 30 39 16 21 1015.1 1015.0 0.0
20/11:00am 21.3 15.0 3.5 31 8.6 NW 26 39 14 21 1015.4 1015.3 0.0
20/10:30am 20.5 15.2 4.9 36 7.7 NW 22 30 12 16 1015.8 1015.7 0.0
20/10:00am 19.0 14.1 4.0 37 7.2 NW 19 30 10 16 1016.2 1016.2 0.0
20/09:30am 17.6 13.4 5.5 45 5.9 NW 17 24 9 13 1016.7 1016.7 0.0
20/09:00am 16.3 12.1 4.0 44 5.8 NW 15 24 8 13 1016.8 1016.8 0.0
20/08:30am 14.2 12.2 8.6 69 2.9 NNW 9 13 5 7 1016.9 1016.9 0.0
20/08:00am 11.4 8.9 6.7 73 2.3 N 9 13 5 7 1017.1 1017.1 0.0
20/07:30am 9.2 7.1 6.6 84 1.2 N 7 9 4 5 1017.1 1017.1 0.0
20/07:00am 7.0 4.9 5.9 93 0.5 N 6 7 3 4 1017.0 1017.0 0.0
20/06:30am 4.4 1.7 3.5 94 0.4 N 7 11 4 6 1017.0 1017.0 0.0
20/06:00am 4.0 0.4 3.1 94 0.4 NNE 11 13 6 7 1016.8 1016.8 0.0
20/05:30am 4.5 0.6 3.6 94 0.4 NNE 13 13 7 7 1016.6 1016.6 0.0
20/05:00am 4.2 1.0 3.3 94 0.4 NNE 9 11 5 6 1016.7 1016.7 0.0
20/04:30am 4.1 1.3 3.1 93 0.4 N 7 9 4 5 1016.8 1016.8 0.0
20/04:00am 4.6 0.8 3.7 94 0.4 NNE 13 13 7 7 1016.9 1016.9 0.0
20/03:30am 4.3 1.2 3.4 94 0.4 NNE 9 11 5 6 1017.0 1017.0 0.0
20/03:00am 4.7 2.2 3.5 92 0.5 NNE 6 7 3 4 1017.3 1017.3 0.0
20/02:30am 4.9 2.4 3.9 93 0.4 N 6 7 3 4 1017.6 1017.6 0.0
20/02:00am 5.0 2.0 4.0 93 0.4 NNE 9 11 5 6 1018.0 1017.9 0.0
20/01:30am 5.2 2.2 4.0 92 0.5 NNE 9 11 5 6 1018.4 1018.3 0.0
20/01:00am 5.5 2.6 4.5 93 0.4 NNE 9 11 5 6 1018.8 1018.7 0.0
20/12:30am 5.5 2.2 4.5 93 0.4 NNE 11 13 6 7 1019.1 1019.0 0.0
20/12:00am 6.2 3.0 5.0 92 0.5 NNE 11 13 6 7 1019.3 1019.2 0.0
 
Date/Time
EST
Temp
°C
App
Temp
°C
Dew
Point
°C
Rel
Hum
%
Delta-T
°C
Wind Press
QNH
hPa
Press
MSL
hPa
Rain since
9am
mm
Dir  Spd
km/h
Gust
km/h
Spd
kts
Gust
kts
19/11:30pm 6.3 3.4 4.9 91 0.6 N 9 9 5 5 1019.6 1019.5 0.0
19/11:00pm 7.0 4.2 5.2 88 0.8 NNE 9 11 5 6 1019.8 1019.8 0.0
19/10:30pm 6.8 5.7 5.1 89 0.8 CALM 0 0 0 0 1020.0 1020.0 0.0
19/10:00pm 7.4 5.6 5.2 86 1.0 NE 4 6 2 3 1020.0 1020.0 0.0
19/09:30pm 7.7 6.0 5.7 87 0.9 NNE 4 6 2 3 1020.0 1020.0 0.0
19/09:00pm 7.4 6.4 5.4 87 0.9 CALM 0 0 0 0 1020.1 1020.1 0.0
19/08:30pm 7.9 6.9 5.7 86 1.0 CALM 0 0 0 0 1020.1 1020.1 0.0
19/08:00pm 8.5 6.2 5.6 82 1.3 NE 7 11 4 6 1020.1 1020.1 0.0
19/07:30pm 9.5 7.9 6.4 81 1.5 NE 4 6 2 3 1020.0 1020.0 0.0
19/07:00pm 11.1 10.1 5.6 69 2.6 CALM 0 0 0 0 1019.9 1019.9 0.0
19/06:30pm 13.0 12.1 6.1 63 3.3 CALM 0 0 0 0 1020.0 1020.0 0.0
19/06:00pm 15.8 14.6 4.5 47 5.3 CALM 0 0 0 0 1020.0 1020.0 0.0
19/05:30pm 17.4 16.0 5.7 46 5.7 WNW 2 4 1 2 1020.1 1020.1 0.0
19/05:00pm 18.7 16.2 4.8 40 6.7 WNW 7 11 4 6 1020.3 1020.3 0.0
19/04:30pm 19.0 14.9 2.4 33 7.7 W 13 20 7 11 1020.2 1020.2 0.0
19/04:00pm 19.6 16.3 2.5 32 8.0 W 9 19 5 10 1020.2 1020.2 0.0
19/03:30pm 19.6 15.7 3.3 34 7.8 WNW 13 20 7 11 1020.4 1020.4 0.0
19/03:00pm 19.4 15.0 2.7 33 7.8 W 15 20 8 11 1020.6 1020.6 0.0
19/02:30pm 19.4 15.1 3.2 34 7.7 W 15 26 8 14 1021.1 1021.1 0.0
19/02:00pm 19.2 14.9 3.0 34 7.6 W 15 20 8 11 1021.7 1021.7 0.0
19/01:30pm 19.2 14.9 3.0 34 7.6 W 15 24 8 13 1022.1 1022.1 0.0
19/01:00pm 19.3 15.6 4.6 38 7.1 W 13 24 7 13 1022.6 1022.5 0.0
19/12:30pm 18.8 14.5 3.4 36 7.3 W 15 22 8 12 1023.1 1023.0 0.0
19/12:00pm 18.6 15.3 4.4 39 6.8 W 11 17 6 9 1023.5 1023.5 0.0
19/11:30am 17.7 13.2 2.1 35 7.1 WNW 15 24 8 13 1023.9 1023.9 0.0
19/11:00am 17.9 14.6 4.8 42 6.3 WNW 11 24 6 13 1024.2 1024.2 0.0
19/10:30am 16.9 13.8 5.5 47 5.6 WNW 11 17 6 9 1024.7 1024.7 0.0
19/10:00am 15.9 12.3 4.9 48 5.2 WNW 13 17 7 9 1024.9 1024.9 0.0
19/09:30am 14.8 12.8 7.1 60 3.8 NW 7 13 4 7 1025.1 1025.1 0.0

Other formats

Comma delimited format used in spreadsheet applications
http://www.bom.gov.au/fwo/IDN60801/IDN60801.94715.axf

JavaScript Object Notation format (JSON) in row-major order
http://www.bom.gov.au/fwo/IDN60801/IDN60801.94715.json

Data quality

Most of these data are generated automatically and are frequently updated. Quality checks on data are not normally performed. It is possible for incorrect values to appear. Refer to information at About Latest Weather Observations and please check the disclaimer before using these data.